sensor_id;sensor_type;location;lat;lon;timestamp;temperature;humidity
12460;DHT22;6295;49.452;8.466;2023-04-09T04:18:57;8.80;99.90
12460;DHT22;6295;49.452;8.466;2023-04-09T04:22:59;8.80;99.90
12460;DHT22;6295;49.452;8.466;2023-04-09T04:47:19;8.80;99.90
12460;DHT22;6295;49.452;8.466;2023-04-09T04:51:21;8.80;99.90
12460;DHT22;6295;49.452;8.466;2023-04-09T04:55:23;8.70;99.90
12460;DHT22;6295;49.452;8.466;2023-04-09T04:59:25;8.70;99.90
12460;DHT22;6295;49.452;8.466;2023-04-09T05:03:28;8.70;99.90
12460;DHT22;6295;49.452;8.466;2023-04-09T05:11:33;8.70;99.90
12460;DHT22;6295;49.452;8.466;2023-04-09T05:19:41;8.70;99.90
12460;DHT22;6295;49.452;8.466;2023-04-09T05:23:43;8.70;99.90
12460;DHT22;6295;49.452;8.466;2023-04-09T05:27:46;8.70;99.90
12460;DHT22;6295;49.452;8.466;2023-04-09T05:31:48;8.70;99.90
12460;DHT22;6295;49.452;8.466;2023-04-09T05:39:53;8.70;99.90
12460;DHT22;6295;49.452;8.466;2023-04-09T05:43:55;8.70;99.90
12460;DHT22;6295;49.452;8.466;2023-04-09T05:47:57;8.70;99.90
12460;DHT22;6295;49.452;8.466;2023-04-09T05:52:01;8.70;99.90
12460;DHT22;6295;49.452;8.466;2023-04-09T05:56:12;8.70;99.90
12460;DHT22;6295;49.452;8.466;2023-04-09T06:04:17;8.70;99.90
12460;DHT22;6295;49.452;8.466;2023-04-09T06:08:21;8.70;99.90
12460;DHT22;6295;49.452;8.466;2023-04-09T06:12:23;8.70;99.90
12460;DHT22;6295;49.452;8.466;2023-04-09T06:20:28;8.70;99.90
12460;DHT22;6295;49.452;8.466;2023-04-09T06:24:31;8.70;99.90
12460;DHT22;6295;49.452;8.466;2023-04-09T06:28:34;8.70;99.90
12460;DHT22;6295;49.452;8.466;2023-04-09T06:32:36;8.80;99.90
12460;DHT22;6295;49.452;8.466;2023-04-09T06:36:38;8.80;99.90
12460;DHT22;6295;49.452;8.466;2023-04-09T06:40:41;8.90;99.90
12460;DHT22;6295;49.452;8.466;2023-04-09T06:48:46;8.90;99.90
12460;DHT22;6295;49.452;8.466;2023-04-09T06:52:48;9.00;99.90
12460;DHT22;6295;49.452;8.466;2023-04-09T06:56:52;9.00;99.90
12460;DHT22;6295;49.452;8.466;2023-04-09T07:04:56;9.20;99.90
12460;DHT22;6295;49.452;8.466;2023-04-09T07:13:02;9.40;99.90
12460;DHT22;6295;49.452;8.466;2023-04-09T07:25:09;9.80;99.90
12460;DHT22;6295;49.452;8.466;2023-04-09T07:33:15;10.00;99.90
12460;DHT22;6295;49.452;8.466;2023-04-09T07:41:20;10.30;99.90
12460;DHT22;6295;49.452;8.466;2023-04-09T07:45:23;10.30;99.90
12460;DHT22;6295;49.452;8.466;2023-04-09T07:49:25;10.30;99.90
12460;DHT22;6295;49.452;8.466;2023-04-09T07:57:30;10.50;99.90
12460;DHT22;6295;49.452;8.466;2023-04-09T08:01:34;10.60;99.90
12460;DHT22;6295;49.452;8.466;2023-04-09T08:05:36;10.60;99.90
12460;DHT22;6295;49.452;8.466;2023-04-09T08:09:39;10.70;99.90
12460;DHT22;6295;49.452;8.466;2023-04-09T08:17:45;10.90;99.90
12460;DHT22;6295;49.452;8.466;2023-04-09T08:21:47;11.00;99.90
12460;DHT22;6295;49.452;8.466;2023-04-09T08:25:49;11.00;99.90
12460;DHT22;6295;49.452;8.466;2023-04-09T08:29:51;11.00;99.90
12460;DHT22;6295;49.452;8.466;2023-04-09T08:33:55;11.10;99.90
12460;DHT22;6295;49.452;8.466;2023-04-09T08:37:57;11.20;99.90
12460;DHT22;6295;49.452;8.466;2023-04-09T08:41:59;11.40;99.90
12460;DHT22;6295;49.452;8.466;2023-04-09T08:46:04;11.50;99.90
12460;DHT22;6295;49.452;8.466;2023-04-09T08:50:08;11.70;99.90
12460;DHT22;6295;49.452;8.466;2023-04-09T08:54:16;11.90;99.90
12460;DHT22;6295;49.452;8.466;2023-04-09T08:58:23;12.10;99.90
12460;DHT22;6295;49.452;8.466;2023-04-09T09:02:25;12.30;99.90
12460;DHT22;6295;49.452;8.466;2023-04-09T09:06:30;12.30;99.90
12460;DHT22;6295;49.452;8.466;2023-04-09T09:18:48;12.50;99.90
12460;DHT22;6295;49.452;8.466;2023-04-09T09:22:53;12.70;99.90
12460;DHT22;6295;49.452;8.466;2023-04-09T09:31:07;13.10;99.90
12460;DHT22;6295;49.452;8.466;2023-04-09T09:35:09;13.10;99.90
12460;DHT22;6295;49.452;8.466;2023-04-09T09:39:14;13.20;99.90
12460;DHT22;6295;49.452;8.466;2023-04-09T09:43:17;13.40;99.90
12460;DHT22;6295;49.452;8.466;2023-04-09T09:47:20;13.50;99.90
12460;DHT22;6295;49.452;8.466;2023-04-09T09:51:25;13.60;99.90
12460;DHT22;6295;49.452;8.466;2023-04-09T09:55:32;13.60;99.90
12460;DHT22;6295;49.452;8.466;2023-04-09T09:59:37;13.60;99.90
12460;DHT22;6295;49.452;8.466;2023-04-09T10:03:41;13.50;99.90
12460;DHT22;6295;49.452;8.466;2023-04-09T10:07:45;13.40;99.90
12460;DHT22;6295;49.452;8.466;2023-04-09T10:11:50;13.40;99.90
12460;DHT22;6295;49.452;8.466;2023-04-09T10:20:00;13.60;99.90
12460;DHT22;6295;49.452;8.466;2023-04-09T10:28:16;13.50;99.90
12460;DHT22;6295;49.452;8.466;2023-04-09T10:32:20;13.50;99.90
12460;DHT22;6295;49.452;8.466;2023-04-09T10:36:23;13.40;99.90
12460;DHT22;6295;49.452;8.466;2023-04-09T10:40:27;13.30;99.90
12460;DHT22;6295;49.452;8.466;2023-04-09T10:44:31;13.30;99.90
12460;DHT22;6295;49.452;8.466;2023-04-09T10:48:35;13.30;99.90
12460;DHT22;6295;49.452;8.466;2023-04-09T10:52:39;13.30;99.90
12460;DHT22;6295;49.452;8.466;2023-04-09T10:57:08;13.40;99.90
12460;DHT22;6295;49.452;8.466;2023-04-09T11:05:31;13.40;99.90
12460;DHT22;6295;49.452;8.466;2023-04-09T11:09:34;13.50;99.90
12460;DHT22;6295;49.452;8.466;2023-04-09T11:17:42;13.60;99.90
12460;DHT22;6295;49.452;8.466;2023-04-09T11:21:46;13.80;99.90
12460;DHT22;6295;49.452;8.466;2023-04-09T11:29:54;13.90;99.90
12460;DHT22;6295;49.452;8.466;2023-04-09T11:33:58;14.00;99.90
12460;DHT22;6295;49.452;8.466;2023-04-09T11:38:00;14.00;99.90
12460;DHT22;6295;49.452;8.466;2023-04-09T11:46:09;14.00;99.90
12460;DHT22;6295;49.452;8.466;2023-04-09T11:50:13;13.90;99.90
12460;DHT22;6295;49.452;8.466;2023-04-09T11:58:21;13.90;99.90
12460;DHT22;6295;49.452;8.466;2023-04-09T12:06:28;13.90;99.90
12460;DHT22;6295;49.452;8.466;2023-04-09T12:18:36;14.10;99.90
12460;DHT22;6295;49.452;8.466;2023-04-09T12:30:47;14.30;99.90
12460;DHT22;6295;49.452;8.466;2023-04-09T12:43:02;14.50;99.90
12460;DHT22;6295;49.452;8.466;2023-04-09T12:51:07;14.60;99.50
12460;DHT22;6295;49.452;8.466;2023-04-09T12:55:13;14.60;98.70
12460;DHT22;6295;49.452;8.466;2023-04-09T12:59:15;14.60;98.00
12460;DHT22;6295;49.452;8.466;2023-04-09T13:11:31;15.00;97.00
12460;DHT22;6295;49.452;8.466;2023-04-09T13:15:33;15.10;96.40
12460;DHT22;6295;49.452;8.466;2023-04-09T13:19:37;15.20;95.20
12460;DHT22;6295;49.452;8.466;2023-04-09T13:23:43;15.30;94.90
12460;DHT22;6295;49.452;8.466;2023-04-09T13:27:48;15.50;95.30
12460;DHT22;6295;49.452;8.466;2023-04-09T13:39:56;15.80;94.10
12460;DHT22;6295;49.452;8.466;2023-04-09T13:44:06;16.00;94.30
12460;DHT22;6295;49.452;8.466;2023-04-09T13:48:11;16.20;94.30
12460;DHT22;6295;49.452;8.466;2023-04-09T13:56:16;16.40;94.30
12460;DHT22;6295;49.452;8.466;2023-04-09T14:00:21;16.50;93.30
12460;DHT22;6295;49.452;8.466;2023-04-09T14:08:28;16.60;93.60
12460;DHT22;6295;49.452;8.466;2023-04-09T14:12:31;16.70;93.50
12460;DHT22;6295;49.452;8.466;2023-04-09T14:16:34;16.80;92.70
12460;DHT22;6295;49.452;8.466;2023-04-09T14:20:36;16.80;91.30
12460;DHT22;6295;49.452;8.466;2023-04-09T14:24:39;16.90;91.60
12460;DHT22;6295;49.452;8.466;2023-04-09T14:28:41;17.00;91.60
12460;DHT22;6295;49.452;8.466;2023-04-09T14:32:47;17.00;90.90
12460;DHT22;6295;49.452;8.466;2023-04-09T14:36:52;17.10;91.10
12460;DHT22;6295;49.452;8.466;2023-04-09T14:44:56;17.30;90.70
12460;DHT22;6295;49.452;8.466;2023-04-09T14:49:00;17.40;89.20
12460;DHT22;6295;49.452;8.466;2023-04-09T14:53:02;17.40;89.30
12460;DHT22;6295;49.452;8.466;2023-04-09T14:57:04;17.40;89.10
12460;DHT22;6295;49.452;8.466;2023-04-09T15:01:07;17.40;86.90
12460;DHT22;6295;49.452;8.466;2023-04-09T15:05:10;17.20;87.00
12460;DHT22;6295;49.452;8.466;2023-04-09T15:09:13;17.20;87.30
12460;DHT22;6295;49.452;8.466;2023-04-09T15:13:15;17.20;88.40
12460;DHT22;6295;49.452;8.466;2023-04-09T15:17:17;17.10;87.80
12460;DHT22;6295;49.452;8.466;2023-04-09T15:21:23;16.90;87.20
12460;DHT22;6295;49.452;8.466;2023-04-09T15:25:28;17.00;87.50
12460;DHT22;6295;49.452;8.466;2023-04-09T15:29:35;17.00;86.70
12460;DHT22;6295;49.452;8.466;2023-04-09T15:33:42;17.10;86.40
12460;DHT22;6295;49.452;8.466;2023-04-09T15:37:51;17.10;85.40
12460;DHT22;6295;49.452;8.466;2023-04-09T15:41:57;17.20;84.50
12460;DHT22;6295;49.452;8.466;2023-04-09T15:46:07;17.20;84.30
12460;DHT22;6295;49.452;8.466;2023-04-09T15:50:14;17.20;83.30
12460;DHT22;6295;49.452;8.466;2023-04-09T15:54:21;17.10;84.60
12460;DHT22;6295;49.452;8.466;2023-04-09T15:58:27;17.10;85.10
12460;DHT22;6295;49.452;8.466;2023-04-09T16:02:32;17.00;82.50
12460;DHT22;6295;49.452;8.466;2023-04-09T16:10:38;16.70;83.10
12460;DHT22;6295;49.452;8.466;2023-04-09T16:14:40;16.60;83.50
12460;DHT22;6295;49.452;8.466;2023-04-09T16:18:44;16.60;84.10
12460;DHT22;6295;49.452;8.466;2023-04-09T16:22:50;16.70;85.50
12460;DHT22;6295;49.452;8.466;2023-04-09T16:26:57;16.80;86.00
12460;DHT22;6295;49.452;8.466;2023-04-09T16:31:04;17.00;85.20
12460;DHT22;6295;49.452;8.466;2023-04-09T16:35:08;17.10;85.30
12460;DHT22;6295;49.452;8.466;2023-04-09T16:39:10;17.10;84.80
12460;DHT22;6295;49.452;8.466;2023-04-09T16:43:14;17.20;82.60
12460;DHT22;6295;49.452;8.466;2023-04-09T16:47:16;17.10;80.90
12460;DHT22;6295;49.452;8.466;2023-04-09T16:51:18;17.10;80.60
12460;DHT22;6295;49.452;8.466;2023-04-09T16:55:20;17.00;81.80
12460;DHT22;6295;49.452;8.466;2023-04-09T16:59:24;17.10;81.80
12460;DHT22;6295;49.452;8.466;2023-04-09T17:07:28;17.00;81.70
12460;DHT22;6295;49.452;8.466;2023-04-09T17:11:30;17.00;81.30
12460;DHT22;6295;49.452;8.466;2023-04-09T17:15:34;16.90;80.70
12460;DHT22;6295;49.452;8.466;2023-04-09T17:19:39;16.80;80.90
12460;DHT22;6295;49.452;8.466;2023-04-09T17:27:47;16.70;81.10
12460;DHT22;6295;49.452;8.466;2023-04-09T17:31:50;16.60;81.10
12460;DHT22;6295;49.452;8.466;2023-04-09T17:39:57;16.30;80.50
12460;DHT22;6295;49.452;8.466;2023-04-09T17:43:59;16.10;81.80
12460;DHT22;6295;49.452;8.466;2023-04-09T17:48:03;15.90;81.30
12460;DHT22;6295;49.452;8.466;2023-04-09T17:52:05;15.70;81.00
12460;DHT22;6295;49.452;8.466;2023-04-09T17:56:14;15.50;81.60
